sensor_id;sensor_type;location;lat;lon;timestamp;temperature;humidity
318;DHT22;146;53.448;10.228;2023-01-23T00:01:15;4.40;1.00
318;DHT22;146;53.448;10.228;2023-01-23T00:03:42;4.50;1.00
318;DHT22;146;53.448;10.228;2023-01-23T00:06:11;4.60;1.00
318;DHT22;146;53.448;10.228;2023-01-23T00:08:39;4.50;1.00
318;DHT22;146;53.448;10.228;2023-01-23T00:11:12;4.50;1.00
318;DHT22;146;53.448;10.228;2023-01-23T00:13:38;4.50;1.00
318;DHT22;146;53.448;10.228;2023-01-23T00:16:07;4.50;1.00
318;DHT22;146;53.448;10.228;2023-01-23T00:18:34;4.60;1.00
318;DHT22;146;53.448;10.228;2023-01-23T00:21:03;4.50;1.00
318;DHT22;146;53.448;10.228;2023-01-23T00:23:30;4.40;1.00
318;DHT22;146;53.448;10.228;2023-01-23T00:26:02;4.40;1.00
318;DHT22;146;53.448;10.228;2023-01-23T00:28:30;4.40;1.00
318;DHT22;146;53.448;10.228;2023-01-23T00:31:02;4.40;1.00
318;DHT22;146;53.448;10.228;2023-01-23T00:33:29;4.30;1.00
318;DHT22;146;53.448;10.228;2023-01-23T00:35:56;4.10;1.00
318;DHT22;146;53.448;10.228;2023-01-23T00:38:23;4.10;1.00
318;DHT22;146;53.448;10.228;2023-01-23T00:40:50;4.20;1.00
318;DHT22;146;53.448;10.228;2023-01-23T00:43:16;4.10;1.00
318;DHT22;146;53.448;10.228;2023-01-23T00:45:44;4.00;1.00
318;DHT22;146;53.448;10.228;2023-01-23T00:48:11;4.10;1.00
318;DHT22;146;53.448;10.228;2023-01-23T00:50:38;4.10;1.00
318;DHT22;146;53.448;10.228;2023-01-23T00:53:05;4.20;1.00
318;DHT22;146;53.448;10.228;2023-01-23T00:55:32;4.40;1.00
318;DHT22;146;53.448;10.228;2023-01-23T00:57:59;4.50;1.00
318;DHT22;146;53.448;10.228;2023-01-23T01:00:26;4.60;1.00
318;DHT22;146;53.448;10.228;2023-01-23T01:02:54;4.80;1.00
318;DHT22;146;53.448;10.228;2023-01-23T01:05:21;4.80;1.00
318;DHT22;146;53.448;10.228;2023-01-23T01:07:48;4.80;1.00
318;DHT22;146;53.448;10.228;2023-01-23T01:10:15;4.90;1.00
318;DHT22;146;53.448;10.228;2023-01-23T01:12:42;4.90;1.00
318;DHT22;146;53.448;10.228;2023-01-23T01:15:10;4.90;1.00
318;DHT22;146;53.448;10.228;2023-01-23T01:17:37;4.90;1.00
318;DHT22;146;53.448;10.228;2023-01-23T01:20:07;4.70;1.00
318;DHT22;146;53.448;10.228;2023-01-23T01:22:34;4.60;1.00
318;DHT22;146;53.448;10.228;2023-01-23T01:25:01;4.60;1.00
318;DHT22;146;53.448;10.228;2023-01-23T01:27:28;4.60;1.00
318;DHT22;146;53.448;10.228;2023-01-23T01:29:55;4.60;1.00
318;DHT22;146;53.448;10.228;2023-01-23T01:32:22;4.70;1.00
318;DHT22;146;53.448;10.228;2023-01-23T01:34:50;4.70;1.00
318;DHT22;146;53.448;10.228;2023-01-23T01:37:18;4.60;1.00
318;DHT22;146;53.448;10.228;2023-01-23T01:39:47;4.60;1.00
318;DHT22;146;53.448;10.228;2023-01-23T01:42:15;4.60;1.00
318;DHT22;146;53.448;10.228;2023-01-23T01:44:51;4.60;1.00
318;DHT22;146;53.448;10.228;2023-01-23T01:47:18;4.70;1.00
318;DHT22;146;53.448;10.228;2023-01-23T01:49:45;4.70;1.00
318;DHT22;146;53.448;10.228;2023-01-23T01:52:13;4.70;1.00
318;DHT22;146;53.448;10.228;2023-01-23T01:54:45;4.80;1.00
318;DHT22;146;53.448;10.228;2023-01-23T01:57:17;4.70;1.00
318;DHT22;146;53.448;10.228;2023-01-23T01:59:46;4.70;1.00
318;DHT22;146;53.448;10.228;2023-01-23T02:02:18;4.70;1.00
318;DHT22;146;53.448;10.228;2023-01-23T02:04:47;4.60;1.00
318;DHT22;146;53.448;10.228;2023-01-23T02:07:19;4.60;1.00
318;DHT22;146;53.448;10.228;2023-01-23T02:09:49;4.60;1.00
318;DHT22;146;53.448;10.228;2023-01-23T02:12:16;4.60;1.00
318;DHT22;146;53.448;10.228;2023-01-23T02:14:43;4.70;1.00
318;DHT22;146;53.448;10.228;2023-01-23T02:17:10;4.80;1.00
318;DHT22;146;53.448;10.228;2023-01-23T02:19:43;4.80;1.00
318;DHT22;146;53.448;10.228;2023-01-23T02:22:27;4.80;1.00
318;DHT22;146;53.448;10.228;2023-01-23T02:25:03;4.50;1.00
318;DHT22;146;53.448;10.228;2023-01-23T02:27:33;4.40;1.00
318;DHT22;146;53.448;10.228;2023-01-23T02:30:00;4.40;1.00
318;DHT22;146;53.448;10.228;2023-01-23T02:32:27;4.40;1.00
318;DHT22;146;53.448;10.228;2023-01-23T02:34:56;4.40;1.00
318;DHT22;146;53.448;10.228;2023-01-23T02:37:28;4.50;1.00
318;DHT22;146;53.448;10.228;2023-01-23T02:39:58;4.50;1.00
318;DHT22;146;53.448;10.228;2023-01-23T02:42:27;4.40;1.00
318;DHT22;146;53.448;10.228;2023-01-23T02:44:56;4.50;1.00
318;DHT22;146;53.448;10.228;2023-01-23T02:47:24;4.60;1.00
318;DHT22;146;53.448;10.228;2023-01-23T02:49:50;4.50;1.00
318;DHT22;146;53.448;10.228;2023-01-23T02:52:17;4.50;1.00
318;DHT22;146;53.448;10.228;2023-01-23T02:54:44;4.50;1.00
318;DHT22;146;53.448;10.228;2023-01-23T02:57:12;4.50;1.00
318;DHT22;146;53.448;10.228;2023-01-23T02:59:38;4.50;1.00
318;DHT22;146;53.448;10.228;2023-01-23T03:02:24;4.60;1.00
318;DHT22;146;53.448;10.228;2023-01-23T03:04:52;4.60;1.00
318;DHT22;146;53.448;10.228;2023-01-23T03:07:19;4.60;1.00
318;DHT22;146;53.448;10.228;2023-01-23T03:09:46;4.60;1.00
318;DHT22;146;53.448;10.228;2023-01-23T03:12:13;4.60;1.00
318;DHT22;146;53.448;10.228;2023-01-23T03:14:40;4.70;1.00
318;DHT22;146;53.448;10.228;2023-01-23T03:17:07;4.70;1.00
318;DHT22;146;53.448;10.228;2023-01-23T03:19:37;4.60;1.00
318;DHT22;146;53.448;10.228;2023-01-23T03:22:04;4.60;1.00
318;DHT22;146;53.448;10.228;2023-01-23T03:24:32;4.70;1.00
318;DHT22;146;53.448;10.228;2023-01-23T03:26:59;4.70;1.00
318;DHT22;146;53.448;10.228;2023-01-23T03:29:26;4.70;1.00
318;DHT22;146;53.448;10.228;2023-01-23T03:32:12;4.70;1.00
318;DHT22;146;53.448;10.228;2023-01-23T03:34:41;4.60;1.00
318;DHT22;146;53.448;10.228;2023-01-23T03:37:09;4.60;1.00
318;DHT22;146;53.448;10.228;2023-01-23T03:39:37;4.60;1.00
318;DHT22;146;53.448;10.228;2023-01-23T03:42:21;4.60;1.00
318;DHT22;146;53.448;10.228;2023-01-23T03:44:50;4.50;1.00
318;DHT22;146;53.448;10.228;2023-01-23T03:47:17;4.50;1.00
318;DHT22;146;53.448;10.228;2023-01-23T03:49:46;4.50;1.00
318;DHT22;146;53.448;10.228;2023-01-23T03:52:13;4.50;1.00
318;DHT22;146;53.448;10.228;2023-01-23T03:54:40;4.50;1.00
318;DHT22;146;53.448;10.228;2023-01-23T03:57:07;4.60;1.00
318;DHT22;146;53.448;10.228;2023-01-23T03:59:34;4.60;1.00
318;DHT22;146;53.448;10.228;2023-01-23T04:02:01;4.60;1.00
318;DHT22;146;53.448;10.228;2023-01-23T04:04:29;4.60;1.00
318;DHT22;146;53.448;10.228;2023-01-23T04:06:57;4.60;1.00
318;DHT22;146;53.448;10.228;2023-01-23T04:09:24;4.70;1.00
318;DHT22;146;53.448;10.228;2023-01-23T04:11:52;4.70;1.00
318;DHT22;146;53.448;10.228;2023-01-23T04:14:19;4.70;1.00
318;DHT22;146;53.448;10.228;2023-01-23T04:16:46;4.60;1.00
318;DHT22;146;53.448;10.228;2023-01-23T04:19:13;4.60;1.00
318;DHT22;146;53.448;10.228;2023-01-23T04:21:44;4.60;1.00
318;DHT22;146;53.448;10.228;2023-01-23T04:24:12;4.60;1.00
318;DHT22;146;53.448;10.228;2023-01-23T04:26:39;4.60;1.00
318;DHT22;146;53.448;10.228;2023-01-23T04:29:06;4.60;1.00
318;DHT22;146;53.448;10.228;2023-01-23T04:31:33;4.60;1.00
318;DHT22;146;53.448;10.228;2023-01-23T04:34:00;4.50;1.00
318;DHT22;146;53.448;10.228;2023-01-23T04:36:28;4.50;1.00
318;DHT22;146;53.448;10.228;2023-01-23T04:38:54;4.50;1.00
318;DHT22;146;53.448;10.228;2023-01-23T04:41:25;4.50;1.00
318;DHT22;146;53.448;10.228;2023-01-23T04:43:52;4.50;1.00
318;DHT22;146;53.448;10.228;2023-01-23T04:46:19;4.40;1.00
318;DHT22;146;53.448;10.228;2023-01-23T04:48:46;4.40;1.00
318;DHT22;146;53.448;10.228;2023-01-23T04:51:12;4.40;1.00
318;DHT22;146;53.448;10.228;2023-01-23T04:53:39;4.40;1.00
318;DHT22;146;53.448;10.228;2023-01-23T04:56:06;4.40;1.00
318;DHT22;146;53.448;10.228;2023-01-23T04:58:35;4.30;1.00
318;DHT22;146;53.448;10.228;2023-01-23T05:01:03;4.30;1.00
318;DHT22;146;53.448;10.228;2023-01-23T05:03:30;4.30;1.00
318;DHT22;146;53.448;10.228;2023-01-23T05:05:59;4.40;1.00
318;DHT22;146;53.448;10.228;2023-01-23T05:08:26;4.40;1.00
318;DHT22;146;53.448;10.228;2023-01-23T05:10:52;4.30;1.00
318;DHT22;146;53.448;10.228;2023-01-23T05:13:19;4.20;1.00
318;DHT22;146;53.448;10.228;2023-01-23T05:15:47;4.30;1.00
318;DHT22;146;53.448;10.228;2023-01-23T05:18:14;4.30;1.00
318;DHT22;146;53.448;10.228;2023-01-23T05:20:41;4.30;1.00
318;DHT22;146;53.448;10.228;2023-01-23T05:23:08;4.40;1.00
318;DHT22;146;53.448;10.228;2023-01-23T05:25:35;4.50;1.00
318;DHT22;146;53.448;10.228;2023-01-23T05:28:02;4.40;1.00
318;DHT22;146;53.448;10.228;2023-01-23T05:30:29;4.40;1.00
318;DHT22;146;53.448;10.228;2023-01-23T05:32:57;4.40;1.00
318;DHT22;146;53.448;10.228;2023-01-23T05:35:24;4.40;1.00
318;DHT22;146;53.448;10.228;2023-01-23T05:37:51;4.40;1.00
318;DHT22;146;53.448;10.228;2023-01-23T05:40:19;4.50;1.00
318;DHT22;146;53.448;10.228;2023-01-23T05:42:46;4.40;1.00
318;DHT22;146;53.448;10.228;2023-01-23T05:45:13;4.40;1.00
318;DHT22;146;53.448;10.228;2023-01-23T05:47:40;4.50;1.00
318;DHT22;146;53.448;10.228;2023-01-23T05:50:13;4.40;1.00
318;DHT22;146;53.448;10.228;2023-01-23T05:52:40;4.40;1.00
318;DHT22;146;53.448;10.228;2023-01-23T05:55:07;4.40;1.00
318;DHT22;146;53.448;10.228;2023-01-23T05:57:34;4.50;1.00
318;DHT22;146;53.448;10.228;2023-01-23T06:00:01;4.40;1.00
318;DHT22;146;53.448;10.228;2023-01-23T06:02:28;4.40;1.00
318;DHT22;146;53.448;10.228;2023-01-23T06:04:55;4.50;1.00
318;DHT22;146;53.448;10.228;2023-01-23T06:07:23;4.60;1.00
318;DHT22;146;53.448;10.228;2023-01-23T06:09:50;4.60;1.00
318;DHT22;146;53.448;10.228;2023-01-23T06:12:17;4.60;1.00
318;DHT22;146;53.448;10.228;2023-01-23T06:14:43;4.60;1.00
318;DHT22;146;53.448;10.228;2023-01-23T06:17:11;4.50;1.00
318;DHT22;146;53.448;10.228;2023-01-23T06:19:37;4.60;1.00
318;DHT22;146;53.448;10.228;2023-01-23T06:22:04;4.70;1.00
318;DHT22;146;53.448;10.228;2023-01-23T06:24:32;4.70;1.00
318;DHT22;146;53.448;10.228;2023-01-23T06:26:59;4.70;1.00
318;DHT22;146;53.448;10.228;2023-01-23T06:29:28;4.70;1.00
318;DHT22;146;53.448;10.228;2023-01-23T06:31:55;4.70;1.00
318;DHT22;146;53.448;10.228;2023-01-23T06:34:22;4.70;1.00
318;DHT22;146;53.448;10.228;2023-01-23T06:36:48;4.70;1.00
318;DHT22;146;53.448;10.228;2023-01-23T06:39:15;4.70;1.00
318;DHT22;146;53.448;10.228;2023-01-23T06:41:43;4.60;1.00
318;DHT22;146;53.448;10.228;2023-01-23T06:44:10;4.60;1.00
318;DHT22;146;53.448;10.228;2023-01-23T06:46:37;4.60;1.00
318;DHT22;146;53.448;10.228;2023-01-23T06:49:04;4.50;1.00
318;DHT22;146;53.448;10.228;2023-01-23T06:51:32;4.50;1.00
318;DHT22;146;53.448;10.228;2023-01-23T06:53:59;4.30;1.00
318;DHT22;146;53.448;10.228;2023-01-23T06:56:26;4.20;1.00
318;DHT22;146;53.448;10.228;2023-01-23T06:58:54;4.20;1.00
318;DHT22;146;53.448;10.228;2023-01-23T07:01:21;4.30;1.00
318;DHT22;146;53.448;10.228;2023-01-23T07:03:48;4.30;1.00
318;DHT22;146;53.448;10.228;2023-01-23T07:06:15;4.30;1.00
318;DHT22;146;53.448;10.228;2023-01-23T07:08:42;4.20;1.00
318;DHT22;146;53.448;10.228;2023-01-23T07:11:09;4.20;1.00
318;DHT22;146;53.448;10.228;2023-01-23T07:13:36;4.10;1.00
318;DHT22;146;53.448;10.228;2023-01-23T07:16:05;4.00;1.00
318;DHT22;146;53.448;10.228;2023-01-23T07:18:32;3.90;1.00
318;DHT22;146;53.448;10.228;2023-01-23T07:20:59;4.00;1.00
318;DHT22;146;53.448;10.228;2023-01-23T07:23:26;4.10;1.00
318;DHT22;146;53.448;10.228;2023-01-23T07:25:58;4.00;1.00
318;DHT22;146;53.448;10.228;2023-01-23T07:28:25;4.20;1.00
318;DHT22;146;53.448;10.228;2023-01-23T07:30:52;4.20;1.00
318;DHT22;146;53.448;10.228;2023-01-23T07:33:20;4.00;1.00
318;DHT22;146;53.448;10.228;2023-01-23T07:35:47;4.00;1.00
318;DHT22;146;53.448;10.228;2023-01-23T07:38:14;4.10;1.00
318;DHT22;146;53.448;10.228;2023-01-23T07:40:41;4.20;1.00
318;DHT22;146;53.448;10.228;2023-01-23T07:43:09;4.20;1.00
318;DHT22;146;53.448;10.228;2023-01-23T07:45:37;4.30;1.00
318;DHT22;146;53.448;10.228;2023-01-23T07:48:04;4.30;1.00
318;DHT22;146;53.448;10.228;2023-01-23T07:50:32;4.30;1.00
318;DHT22;146;53.448;10.228;2023-01-23T07:53:00;4.30;1.00
318;DHT22;146;53.448;10.228;2023-01-23T07:55:27;4.20;1.00
318;DHT22;146;53.448;10.228;2023-01-23T07:57:54;4.10;1.00
318;DHT22;146;53.448;10.228;2023-01-23T08:00:22;4.10;1.00
318;DHT22;146;53.448;10.228;2023-01-23T08:02:49;4.20;1.00
318;DHT22;146;53.448;10.228;2023-01-23T08:05:16;4.10;1.00
318;DHT22;146;53.448;10.228;2023-01-23T08:07:44;4.10;1.00
318;DHT22;146;53.448;10.228;2023-01-23T08:10:11;4.20;1.00
318;DHT22;146;53.448;10.228;2023-01-23T08:12:38;4.30;1.00
318;DHT22;146;53.448;10.228;2023-01-23T08:15:06;4.30;1.00
318;DHT22;146;53.448;10.228;2023-01-23T08:17:33;4.30;1.00
318;DHT22;146;53.448;10.228;2023-01-23T08:20:00;4.40;1.00
318;DHT22;146;53.448;10.228;2023-01-23T08:22:27;4.40;1.00
318;DHT22;146;53.448;10.228;2023-01-23T08:24:55;4.40;1.00
318;DHT22;146;53.448;10.228;2023-01-23T08:27:22;4.40;1.00
318;DHT22;146;53.448;10.228;2023-01-23T08:29:48;4.40;1.00
318;DHT22;146;53.448;10.228;2023-01-23T08:32:15;4.40;1.00
318;DHT22;146;53.448;10.228;2023-01-23T08:34:42;4.50;1.00
318;DHT22;146;53.448;10.228;2023-01-23T08:37:09;4.60;1.00
318;DHT22;146;53.448;10.228;2023-01-23T08:39:36;4.50;1.00
318;DHT22;146;53.448;10.228;2023-01-23T08:42:04;4.60;1.00
318;DHT22;146;53.448;10.228;2023-01-23T08:44:31;4.70;1.00
318;DHT22;146;53.448;10.228;2023-01-23T08:47:00;4.80;1.00
318;DHT22;146;53.448;10.228;2023-01-23T08:49:27;4.80;1.00
318;DHT22;146;53.448;10.228;2023-01-23T08:51:54;4.80;1.00
318;DHT22;146;53.448;10.228;2023-01-23T08:54:23;4.80;1.00
318;DHT22;146;53.448;10.228;2023-01-23T08:56:50;4.80;1.00
318;DHT22;146;53.448;10.228;2023-01-23T08:59:18;4.80;1.00
318;DHT22;146;53.448;10.228;2023-01-23T09:01:45;4.80;1.00
318;DHT22;146;53.448;10.228;2023-01-23T09:04:12;4.80;1.00
318;DHT22;146;53.448;10.228;2023-01-23T09:06:39;4.90;1.00
318;DHT22;146;53.448;10.228;2023-01-23T09:09:06;5.00;1.00
318;DHT22;146;53.448;10.228;2023-01-23T09:11:33;4.90;1.00
318;DHT22;146;53.448;10.228;2023-01-23T09:13:59;4.90;1.00
318;DHT22;146;53.448;10.228;2023-01-23T09:16:27;5.00;1.00
318;DHT22;146;53.448;10.228;2023-01-23T09:18:54;5.00;1.00
318;DHT22;146;53.448;10.228;2023-01-23T09:21:21;5.00;1.00
318;DHT22;146;53.448;10.228;2023-01-23T09:23:48;5.00;1.00
318;DHT22;146;53.448;10.228;2023-01-23T09:26:15;5.00;1.00
318;DHT22;146;53.448;10.228;2023-01-23T09:28:42;5.00;1.00
318;DHT22;146;53.448;10.228;2023-01-23T09:31:11;5.10;1.00
318;DHT22;146;53.448;10.228;2023-01-23T09:33:40;5.10;1.00
318;DHT22;146;53.448;10.228;2023-01-23T09:36:08;5.10;1.00
318;DHT22;146;53.448;10.228;2023-01-23T09:38:35;5.10;1.00
318;DHT22;146;53.448;10.228;2023-01-23T09:41:08;5.10;1.00
318;DHT22;146;53.448;10.228;2023-01-23T09:43:40;5.20;1.00
318;DHT22;146;53.448;10.228;2023-01-23T09:46:15;5.20;1.00
318;DHT22;146;53.448;10.228;2023-01-23T09:48:46;5.20;1.00
318;DHT22;146;53.448;10.228;2023-01-23T09:51:19;5.30;1.00
318;DHT22;146;53.448;10.228;2023-01-23T09:53:48;5.30;1.00
318;DHT22;146;53.448;10.228;2023-01-23T09:56:28;5.30;1.00
318;DHT22;146;53.448;10.228;2023-01-23T09:58:59;5.40;1.00
318;DHT22;146;53.448;10.228;2023-01-23T10:01:30;5.30;1.00
318;DHT22;146;53.448;10.228;2023-01-23T10:03:59;5.40;1.00
318;DHT22;146;53.448;10.228;2023-01-23T10:06:29;5.40;1.00
318;DHT22;146;53.448;10.228;2023-01-23T10:09:22;5.40;1.00
318;DHT22;146;53.448;10.228;2023-01-23T10:12:09;5.40;1.00
318;DHT22;146;53.448;10.228;2023-01-23T10:14:56;5.50;1.00
318;DHT22;146;53.448;10.228;2023-01-23T10:17:34;5.50;1.00
318;DHT22;146;53.448;10.228;2023-01-23T10:23:14;5.70;1.00
318;DHT22;146;53.448;10.228;2023-01-23T10:25:43;5.70;1.00
318;DHT22;146;53.448;10.228;2023-01-23T10:28:28;5.70;1.00
318;DHT22;146;53.448;10.228;2023-01-23T10:30:59;5.70;1.00
318;DHT22;146;53.448;10.228;2023-01-23T10:33:34;5.70;1.00
318;DHT22;146;53.448;10.228;2023-01-23T10:36:10;5.70;1.00
318;DHT22;146;53.448;10.228;2023-01-23T10:38:44;5.70;1.00
318;DHT22;146;53.448;10.228;2023-01-23T10:41:14;5.70;1.00
318;DHT22;146;53.448;10.228;2023-01-23T10:43:46;5.80;1.00
318;DHT22;146;53.448;10.228;2023-01-23T10:46:15;5.70;1.00
318;DHT22;146;53.448;10.228;2023-01-23T10:48:44;5.70;1.00
318;DHT22;146;53.448;10.228;2023-01-23T10:51:27;5.60;1.00
318;DHT22;146;53.448;10.228;2023-01-23T10:54:05;5.60;1.00
318;DHT22;146;53.448;10.228;2023-01-23T10:56:33;5.50;1.00
318;DHT22;146;53.448;10.228;2023-01-23T10:59:01;5.40;1.00
318;DHT22;146;53.448;10.228;2023-01-23T11:01:32;5.40;1.00
318;DHT22;146;53.448;10.228;2023-01-23T11:04:10;5.30;1.00
318;DHT22;146;53.448;10.228;2023-01-23T11:06:38;5.40;1.00
318;DHT22;146;53.448;10.228;2023-01-23T11:09:18;5.40;1.00
318;DHT22;146;53.448;10.228;2023-01-23T11:12:01;5.50;1.00
318;DHT22;146;53.448;10.228;2023-01-23T11:14:29;5.50;1.00
318;DHT22;146;53.448;10.228;2023-01-23T11:17:01;5.50;1.00
318;DHT22;146;53.448;10.228;2023-01-23T11:19:30;5.50;1.00
318;DHT22;146;53.448;10.228;2023-01-23T11:22:01;5.40;1.00
318;DHT22;146;53.448;10.228;2023-01-23T11:24:32;5.50;1.00
318;DHT22;146;53.448;10.228;2023-01-23T11:27:00;5.40;1.00
318;DHT22;146;53.448;10.228;2023-01-23T11:29:29;5.40;1.00
318;DHT22;146;53.448;10.228;2023-01-23T11:31:59;5.30;1.00
318;DHT22;146;53.448;10.228;2023-01-23T11:34:32;5.20;1.00
318;DHT22;146;53.448;10.228;2023-01-23T11:37:07;5.10;1.00
318;DHT22;146;53.448;10.228;2023-01-23T11:39:42;5.10;1.00
318;DHT22;146;53.448;10.228;2023-01-23T11:42:11;5.20;1.00
318;DHT22;146;53.448;10.228;2023-01-23T11:44:39;5.20;1.00
318;DHT22;146;53.448;10.228;2023-01-23T11:50:36;5.30;1.00
318;DHT22;146;53.448;10.228;2023-01-23T11:53:14;5.30;1.00
318;DHT22;146;53.448;10.228;2023-01-23T12:01:29;5.40;1.00
318;DHT22;146;53.448;10.228;2023-01-23T12:04:18;5.30;1.00
318;DHT22;146;53.448;10.228;2023-01-23T12:07:02;5.40;1.00
318;DHT22;146;53.448;10.228;2023-01-23T12:09:42;5.40;1.00
318;DHT22;146;53.448;10.228;2023-01-23T12:12:19;5.40;1.00
318;DHT22;146;53.448;10.228;2023-01-23T12:14:56;5.40;1.00
318;DHT22;146;53.448;10.228;2023-01-23T12:17:35;5.50;1.00
318;DHT22;146;53.448;10.228;2023-01-23T12:20:24;5.50;1.00
318;DHT22;146;53.448;10.228;2023-01-23T12:23:16;5.60;1.00
318;DHT22;146;53.448;10.228;2023-01-23T12:25:56;5.70;1.00
318;DHT22;146;53.448;10.228;2023-01-23T12:28:42;5.80;1.00
318;DHT22;146;53.448;10.228;2023-01-23T12:31:27;5.90;1.00
318;DHT22;146;53.448;10.228;2023-01-23T12:34:09;5.90;1.00
318;DHT22;146;53.448;10.228;2023-01-23T12:36:52;6.00;1.00
318;DHT22;146;53.448;10.228;2023-01-23T12:39:38;5.90;1.00
318;DHT22;146;53.448;10.228;2023-01-23T12:42:13;5.90;1.00
318;DHT22;146;53.448;10.228;2023-01-23T12:44:47;5.90;1.00
318;DHT22;146;53.448;10.228;2023-01-23T12:47:21;5.90;1.00
318;DHT22;146;53.448;10.228;2023-01-23T12:49:52;5.90;1.00
318;DHT22;146;53.448;10.228;2023-01-23T12:52:25;5.90;1.00
318;DHT22;146;53.448;10.228;2023-01-23T12:55:00;5.90;1.00
318;DHT22;146;53.448;10.228;2023-01-23T12:57:30;6.00;1.00
318;DHT22;146;53.448;10.228;2023-01-23T13:00:18;6.10;1.00
318;DHT22;146;53.448;10.228;2023-01-23T13:02:52;6.00;1.00
318;DHT22;146;53.448;10.228;2023-01-23T13:05:25;6.00;1.00
318;DHT22;146;53.448;10.228;2023-01-23T13:07:57;6.10;1.00
318;DHT22;146;53.448;10.228;2023-01-23T13:10:53;6.00;1.00
318;DHT22;146;53.448;10.228;2023-01-23T13:13:39;6.00;1.00
318;DHT22;146;53.448;10.228;2023-01-23T13:16:10;6.00;1.00
318;DHT22;146;53.448;10.228;2023-01-23T13:18:38;6.00;1.00
318;DHT22;146;53.448;10.228;2023-01-23T13:21:23;6.00;1.00
318;DHT22;146;53.448;10.228;2023-01-23T13:24:28;6.10;1.00
318;DHT22;146;53.448;10.228;2023-01-23T13:27:41;6.00;1.00
318;DHT22;146;53.448;10.228;2023-01-23T13:30:42;6.10;1.00
318;DHT22;146;53.448;10.228;2023-01-23T13:36:37;6.00;1.00
318;DHT22;146;53.448;10.228;2023-01-23T13:39:25;6.00;1.00
318;DHT22;146;53.448;10.228;2023-01-23T13:45:32;6.10;1.00
318;DHT22;146;53.448;10.228;2023-01-23T13:51:26;6.00;1.00
318;DHT22;146;53.448;10.228;2023-01-23T13:53:53;6.00;1.00
318;DHT22;146;53.448;10.228;2023-01-23T13:56:38;6.00;1.00
318;DHT22;146;53.448;10.228;2023-01-23T13:59:28;5.90;1.00
318;DHT22;146;53.448;10.228;2023-01-23T14:02:03;5.90;1.00
318;DHT22;146;53.448;10.228;2023-01-23T14:04:57;5.90;1.00
318;DHT22;146;53.448;10.228;2023-01-23T14:07:41;5.80;1.00
318;DHT22;146;53.448;10.228;2023-01-23T14:10:21;5.80;1.00
318;DHT22;146;53.448;10.228;2023-01-23T14:12:48;5.80;1.00
318;DHT22;146;53.448;10.228;2023-01-23T14:15:20;5.90;1.00
318;DHT22;146;53.448;10.228;2023-01-23T14:18:14;5.90;1.00
318;DHT22;146;53.448;10.228;2023-01-23T14:20:42;6.00;1.00
318;DHT22;146;53.448;10.228;2023-01-23T14:23:23;6.00;1.00
318;DHT22;146;53.448;10.228;2023-01-23T14:25:51;6.10;1.00
318;DHT22;146;53.448;10.228;2023-01-23T14:28:18;6.10;1.00
318;DHT22;146;53.448;10.228;2023-01-23T14:30:56;6.10;1.00
318;DHT22;146;53.448;10.228;2023-01-23T14:33:23;6.10;1.00
318;DHT22;146;53.448;10.228;2023-01-23T14:35:52;6.10;1.00
318;DHT22;146;53.448;10.228;2023-01-23T14:38:27;6.00;1.00
318;DHT22;146;53.448;10.228;2023-01-23T14:40:55;5.90;1.00
318;DHT22;146;53.448;10.228;2023-01-23T14:43:24;5.90;1.00
318;DHT22;146;53.448;10.228;2023-01-23T14:45:58;5.80;1.00
318;DHT22;146;53.448;10.228;2023-01-23T14:48:26;5.90;1.00
318;DHT22;146;53.448;10.228;2023-01-23T14:51:01;5.90;1.00
318;DHT22;146;53.448;10.228;2023-01-23T14:53:30;5.80;1.00
318;DHT22;146;53.448;10.228;2023-01-23T14:55:57;5.80;1.00
318;DHT22;146;53.448;10.228;2023-01-23T14:58:27;5.80;1.00
318;DHT22;146;53.448;10.228;2023-01-23T15:00:54;5.70;1.00
318;DHT22;146;53.448;10.228;2023-01-23T15:03:40;5.70;1.00
318;DHT22;146;53.448;10.228;2023-01-23T15:06:12;5.70;1.00
318;DHT22;146;53.448;10.228;2023-01-23T15:08:41;5.70;1.00
318;DHT22;146;53.448;10.228;2023-01-23T15:11:09;5.70;1.00
318;DHT22;146;53.448;10.228;2023-01-23T15:13:44;5.70;1.00
318;DHT22;146;53.448;10.228;2023-01-23T15:16:15;5.70;1.00
318;DHT22;146;53.448;10.228;2023-01-23T15:19:02;5.70;1.00
318;DHT22;146;53.448;10.228;2023-01-23T15:21:36;5.60;1.00
318;DHT22;146;53.448;10.228;2023-01-23T15:24:19;5.60;1.00
318;DHT22;146;53.448;10.228;2023-01-23T15:27:21;5.60;1.00
318;DHT22;146;53.448;10.228;2023-01-23T15:29:49;5.50;1.00
318;DHT22;146;53.448;10.228;2023-01-23T15:32:18;5.40;1.00
318;DHT22;146;53.448;10.228;2023-01-23T15:34:52;5.40;1.00
318;DHT22;146;53.448;10.228;2023-01-23T15:37:21;5.40;1.00
318;DHT22;146;53.448;10.228;2023-01-23T15:39:52;5.40;1.00
318;DHT22;146;53.448;10.228;2023-01-23T15:42:26;5.40;1.00
318;DHT22;146;53.448;10.228;2023-01-23T15:44:54;5.40;1.00
318;DHT22;146;53.448;10.228;2023-01-23T15:47:25;5.30;1.00
318;DHT22;146;53.448;10.228;2023-01-23T15:49:52;5.30;1.00
318;DHT22;146;53.448;10.228;2023-01-23T15:52:21;5.30;1.00
318;DHT22;146;53.448;10.228;2023-01-23T15:54:51;5.20;1.00
318;DHT22;146;53.448;10.228;2023-01-23T15:57:19;5.20;1.00
318;DHT22;146;53.448;10.228;2023-01-23T15:59:46;5.10;1.00
318;DHT22;146;53.448;10.228;2023-01-23T16:02:15;5.10;1.00
318;DHT22;146;53.448;10.228;2023-01-23T16:04:43;5.00;1.00
318;DHT22;146;53.448;10.228;2023-01-23T16:07:18;5.00;1.00
318;DHT22;146;53.448;10.228;2023-01-23T16:09:45;5.10;1.00
318;DHT22;146;53.448;10.228;2023-01-23T16:12:18;5.00;1.00
318;DHT22;146;53.448;10.228;2023-01-23T16:14:45;4.90;1.00
318;DHT22;146;53.448;10.228;2023-01-23T16:17:12;4.90;1.00
318;DHT22;146;53.448;10.228;2023-01-23T16:19:39;4.90;1.00
318;DHT22;146;53.448;10.228;2023-01-23T16:22:10;5.00;1.00
318;DHT22;146;53.448;10.228;2023-01-23T16:24:38;5.00;1.00
318;DHT22;146;53.448;10.228;2023-01-23T16:27:12;5.00;1.00
318;DHT22;146;53.448;10.228;2023-01-23T16:29:42;5.00;1.00
318;DHT22;146;53.448;10.228;2023-01-23T16:32:09;4.90;1.00
318;DHT22;146;53.448;10.228;2023-01-23T16:34:36;4.90;1.00
318;DHT22;146;53.448;10.228;2023-01-23T16:37:09;4.90;1.00
318;DHT22;146;53.448;10.228;2023-01-23T16:39:38;4.90;1.00
318;DHT22;146;53.448;10.228;2023-01-23T16:42:06;4.90;1.00
318;DHT22;146;53.448;10.228;2023-01-23T16:44:32;4.90;1.00
318;DHT22;146;53.448;10.228;2023-01-23T16:47:01;4.90;1.00
318;DHT22;146;53.448;10.228;2023-01-23T16:49:27;5.00;1.00
318;DHT22;146;53.448;10.228;2023-01-23T16:51:56;5.00;1.00
318;DHT22;146;53.448;10.228;2023-01-23T16:54:24;5.10;1.00
318;DHT22;146;53.448;10.228;2023-01-23T16:56:52;5.10;1.00
318;DHT22;146;53.448;10.228;2023-01-23T16:59:23;5.10;1.00
318;DHT22;146;53.448;10.228;2023-01-23T17:01:51;5.10;1.00
318;DHT22;146;53.448;10.228;2023-01-23T17:04:21;5.20;1.00
318;DHT22;146;53.448;10.228;2023-01-23T17:06:48;5.20;1.00
318;DHT22;146;53.448;10.228;2023-01-23T17:09:15;5.20;1.00
318;DHT22;146;53.448;10.228;2023-01-23T17:11:45;5.20;1.00
318;DHT22;146;53.448;10.228;2023-01-23T17:14:14;5.20;1.00
318;DHT22;146;53.448;10.228;2023-01-23T17:16:41;5.10;1.00
318;DHT22;146;53.448;10.228;2023-01-23T17:19:16;5.10;1.00
318;DHT22;146;53.448;10.228;2023-01-23T17:21:45;5.10;1.00
318;DHT22;146;53.448;10.228;2023-01-23T17:24:14;5.10;1.00
318;DHT22;146;53.448;10.228;2023-01-23T17:26:41;5.10;1.00
318;DHT22;146;53.448;10.228;2023-01-23T17:29:08;5.10;1.00
318;DHT22;146;53.448;10.228;2023-01-23T17:31:36;5.10;1.00
318;DHT22;146;53.448;10.228;2023-01-23T17:34:04;5.10;1.00
318;DHT22;146;53.448;10.228;2023-01-23T17:36:32;5.10;1.00